Time;durP1;ratioP1;P1;durP2;ratioP2;P2;SDS_P1;SDS_P2;PMS_P1;PMS_P2;Temp;Humidity;BMP_temperature;BMP_pressure;BME280_temperature;BME280_humidity;BME280_pressure;Samples;Min_cycle;Max_cycle;Signal;HPM_P1;HPM_P2
2022/04/01 00:01:04;;;;;;;14.70;12.83;;;;;;;;;;5036765;28;20420;-64
2022/04/01 00:03:29;;;;;;;15.57;13.97;;;;;;;;;;5018696;28;20878;-64
2022/04/01 00:05:55;;;;;;;15.97;13.03;;;;;;;;;;5018360;28;20533;-64
2022/04/01 00:08:21;;;;;;;14.27;12.87;;;;;;;;;;5036359;28;20628;-64
2022/04/01 00:10:47;;;;;;;10.80;9.60;;;;;;;;;;5036421;28;20210;-66
2022/04/01 00:13:13;;;;;;;13.90;12.47;;;;;;;;;;5018735;28;20218;-64
2022/04/01 00:15:39;;;;;;;12.63;10.17;;;;;;;;;;5018348;28;20190;-64
2022/04/01 00:18:06;;;;;;;12.17;10.30;;;;;;;;;;5036040;28;20168;-64
2022/04/01 00:20:32;;;;;;;10.10;9.00;;;;;;;;;;5018172;28;20640;-64
2022/04/01 00:22:58;;;;;;;9.70;8.43;;;;;;;;;;5035816;28;20505;-65
2022/04/01 00:25:24;;;;;;;13.33;11.10;;;;;;;;;;5017704;28;20690;-64
2022/04/01 00:27:50;;;;;;;10.80;9.40;;;;;;;;;;5035785;28;20222;-64
2022/04/01 00:30:17;;;;;;;10.13;8.90;;;;;;;;;;5016413;28;20414;-65
2022/04/01 00:32:43;;;;;;;10.43;9.20;;;;;;;;;;5035524;28;20453;-64
2022/04/01 00:35:09;;;;;;;9.43;8.53;;;;;;;;;;5035315;28;20454;-64
2022/04/01 00:37:35;;;;;;;8.80;7.50;;;;;;;;;;5017479;28;20709;-64
2022/04/01 00:40:01;;;;;;;11.03;9.87;;;;;;;;;;5035715;28;20197;-64
2022/04/01 00:42:27;;;;;;;8.60;7.70;;;;;;;;;;5017644;28;20417;-64
2022/04/01 00:44:53;;;;;;;12.60;9.30;;;;;;;;;;5035204;28;20534;-63
2022/04/01 00:47:19;;;;;;;9.13;8.20;;;;;;;;;;5035063;28;20945;-64
2022/04/01 00:49:46;;;;;;;10.30;9.30;;;;;;;;;;5017554;28;20639;-64
2022/04/01 00:52:15;;;;;;;11.47;7.90;;;;;;;;;;5035272;28;20413;-64
2022/04/01 00:54:41;;;;;;;11.30;10.13;;;;;;;;;;5035411;28;20465;-64
2022/04/01 00:57:08;;;;;;;11.70;8.10;;;;;;;;;;5017157;28;20442;-64
2022/04/01 00:59:34;;;;;;;12.03;9.00;;;;;;;;;;5017233;28;20190;-66
2022/04/01 01:02:00;;;;;;;14.77;10.20;;;;;;;;;;5035278;28;20418;-64
2022/04/01 01:04:27;;;;;;;12.43;8.50;;;;;;;;;;5017086;28;20507;-63
2022/04/01 01:06:55;;;;;;;10.33;8.47;;;;;;;;;;5016917;28;20533;-66
2022/04/01 01:09:22;;;;;;;10.27;8.57;;;;;;;;;;5034683;28;20925;-63
2022/04/01 01:11:49;;;;;;;8.60;7.80;;;;;;;;;;5017222;28;20421;-64
2022/04/01 01:14:16;;;;;;;8.87;7.53;;;;;;;;;;5034878;28;20425;-64
2022/04/01 01:16:46;;;;;;;7.53;6.03;;;;;;;;;;5034441;28;20452;-63
2022/04/01 01:19:15;;;;;;;8.90;8.00;;;;;;;;;;5034803;28;20760;-63
2022/04/01 01:21:42;;;;;;;9.53;7.87;;;;;;;;;;5016725;28;20509;-64
2022/04/01 01:24:11;;;;;;;9.33;8.40;;;;;;;;;;5016446;28;20834;-64
2022/04/01 01:26:38;;;;;;;7.53;6.77;;;;;;;;;;5034163;28;20492;-64
2022/04/01 01:29:04;;;;;;;8.37;7.57;;;;;;;;;;5034752;28;20406;-64
2022/04/01 01:31:30;;;;;;;10.23;7.73;;;;;;;;;;5034183;28;20790;-65
2022/04/01 01:33:57;;;;;;;9.17;7.53;;;;;;;;;;5016747;28;20429;-65
2022/04/01 01:36:24;;;;;;;7.97;7.13;;;;;;;;;;5034149;28;20199;-65
2022/04/01 01:38:51;;;;;;;8.90;7.40;;;;;;;;;;5034283;28;20789;-64
2022/04/01 01:41:17;;;;;;;8.47;7.27;;;;;;;;;;5033940;28;20416;-65
2022/04/01 01:43:43;;;;;;;6.97;6.13;;;;;;;;;;5034265;28;20500;-65
2022/04/01 01:46:09;;;;;;;7.60;6.57;;;;;;;;;;5033843;28;20983;-64
2022/04/01 01:48:36;;;;;;;8.30;6.77;;;;;;;;;;5016224;28;20414;-65
2022/04/01 01:56:31;;;;;;;9.33;6.00;;;;;;;;;;5033875;28;20428;-65
2022/04/01 01:58:58;;;;;;;7.00;6.33;;;;;;;;;;5034047;28;20402;-65
2022/04/01 02:01:24;;;;;;;7.43;6.73;;;;;;;;;;5033718;28;20409;-65
2022/04/01 02:03:51;;;;;;;7.57;6.47;;;;;;;;;;5015900;28;20473;-65
2022/04/01 02:06:17;;;;;;;9.07;7.07;;;;;;;;;;5015940;28;20819;-65
2022/04/01 02:08:43;;;;;;;9.07;7.13;;;;;;;;;;5034079;28;20406;-65
2022/04/01 02:11:09;;;;;;;6.93;6.23;;;;;;;;;;5033632;28;20245;-65
2022/04/01 02:13:35;;;;;;;8.10;7.20;;;;;;;;;;5034107;28;20831;-65
2022/04/01 02:16:01;;;;;;;9.00;7.87;;;;;;;;;;5033626;28;20659;-63
2022/04/01 02:18:27;;;;;;;8.10;7.30;;;;;;;;;;5033806;28;20419;-65
2022/04/01 02:20:54;;;;;;;7.73;7.03;;;;;;;;;;5033861;28;20830;-65
2022/04/01 02:23:20;;;;;;;6.83;6.00;;;;;;;;;;5033445;28;20635;-64
2022/04/01 02:25:46;;;;;;;7.10;6.37;;;;;;;;;;5015555;28;20465;-65
2022/04/01 02:28:12;;;;;;;6.90;6.00;;;;;;;;;;5033855;28;20961;-65
2022/04/01 02:30:38;;;;;;;6.53;5.63;;;;;;;;;;5033410;28;20179;-64
2022/04/01 02:33:06;;;;;;;7.23;6.53;;;;;;;;;;5033197;28;20434;-65
2022/04/01 02:35:32;;;;;;;5.50;4.80;;;;;;;;;;5015465;28;20476;-66
2022/04/01 02:37:58;;;;;;;6.60;6.00;;;;;;;;;;5033667;28;20417;-65
2022/04/01 02:40:24;;;;;;;6.57;5.97;;;;;;;;;;5033723;28;20175;-65
2022/04/01 02:42:53;;;;;;;7.57;6.67;;;;;;;;;;5033190;28;20508;-65
2022/04/01 02:45:20;;;;;;;7.40;6.57;;;;;;;;;;5033467;28;20488;-65
2022/04/01 02:47:45;;;;;;;7.10;6.43;;;;;;;;;;5033173;28;20563;-65
2022/04/01 02:50:11;;;;;;;7.33;6.63;;;;;;;;;;5033396;28;20468;-66
2022/04/01 02:52:37;;;;;;;7.53;6.73;;;;;;;;;;5016090;28;20175;-64
2022/04/01 02:55:05;;;;;;;6.27;5.77;;;;;;;;;;5037293;28;20214;-64
2022/04/01 02:57:31;;;;;;;6.77;6.17;;;;;;;;;;5037028;28;20687;-69
2022/04/01 02:59:57;;;;;;;6.00;5.50;;;;;;;;;;5019877;28;20441;-64
2022/04/01 03:02:23;;;;;;;6.10;5.60;;;;;;;;;;5019446;28;20628;-65
2022/04/01 03:04:49;;;;;;;5.37;4.83;;;;;;;;;;5036817;28;20503;-65
2022/04/01 03:07:15;;;;;;;6.50;5.90;;;;;;;;;;5019211;28;20199;-66
2022/04/01 03:09:41;;;;;;;6.53;5.93;;;;;;;;;;5036885;28;20409;-64
2022/04/01 03:12:07;;;;;;;5.57;4.77;;;;;;;;;;5037251;28;20173;-64
2022/04/01 03:14:33;;;;;;;5.53;5.00;;;;;;;;;;5036858;28;20186;-65
2022/04/01 03:16:59;;;;;;;5.40;4.90;;;;;;;;;;5036539;28;20461;-67
2022/04/01 03:19:28;;;;;;;6.73;6.13;;;;;;;;;;5036766;28;20451;-66
2022/04/01 03:21:55;;;;;;;5.20;4.70;;;;;;;;;;5018876;28;20460;-65
2022/04/01 03:24:21;;;;;;;6.33;5.53;;;;;;;;;;5037046;28;20464;-65
2022/04/01 03:26:47;;;;;;;5.23;4.83;;;;;;;;;;5037096;28;20438;-65
2022/04/01 03:29:13;;;;;;;6.03;5.50;;;;;;;;;;5036551;28;20762;-65
2022/04/01 03:31:40;;;;;;;5.90;5.30;;;;;;;;;;5036446;28;20635;-66
2022/04/01 03:34:07;;;;;;;5.43;4.93;;;;;;;;;;5036776;28;20421;-65
2022/04/01 03:36:36;;;;;;;4.93;4.20;;;;;;;;;;5018745;28;20441;-66
2022/04/01 03:39:03;;;;;;;6.00;5.43;;;;;;;;;;5036216;28;20421;-65
2022/04/01 03:44:02;;;;;;;6.23;5.70;;;;;;;;;;5073411;22;20529;-62
2022/04/01 03:46:30;;;;;;;5.97;5.37;;;;;;;;;;5056873;28;20480;-62
2022/04/01 03:49:02;;;;;;;4.57;4.17;;;;;;;;;;5038987;28;20413;-62
2022/04/01 03:51:29;;;;;;;5.03;4.53;;;;;;;;;;5057048;28;20408;-62
2022/04/01 03:53:57;;;;;;;6.53;5.83;;;;;;;;;;5056439;28;20464;-62
2022/04/01 03:56:29;;;;;;;4.63;4.23;;;;;;;;;;5038737;28;20496;-62
2022/04/01 03:58:58;;;;;;;6.13;5.53;;;;;;;;;;5056651;28;20377;-62
2022/04/01 04:01:24;;;;;;;5.47;4.97;;;;;;;;;;5038804;28;20849;-62
2022/04/01 04:03:50;;;;;;;5.00;4.60;;;;;;;;;;5038404;28;20425;-62
2022/04/01 04:06:16;;;;;;;6.17;5.53;;;;;;;;;;5056728;28;20543;-62
2022/04/01 04:08:44;;;;;;;6.07;5.57;;;;;;;;;;5056519;28;20401;-64
2022/04/01 04:11:10;;;;;;;6.80;6.10;;;;;;;;;;5056559;28;20777;-63
2022/04/01 04:13:37;;;;;;;5.57;5.07;;;;;;;;;;5038439;28;20435;-64
2022/04/01 04:16:20;;;;;;;6.83;6.03;;;;;;;;;;5038188;28;20446;-63
2022/04/01 04:18:48;;;;;;;6.67;6.17;;;;;;;;;;5056748;28;20885;-64
2022/04/01 04:21:26;;;;;;;6.40;5.80;;;;;;;;;;5056576;28;20413;-63
2022/04/01 04:23:56;;;;;;;6.43;5.87;;;;;;;;;;5038111;28;20432;-64
2022/04/01 04:26:35;;;;;;;7.33;6.50;;;;;;;;;;5039519;28;20496;-63
2022/04/01 04:29:07;;;;;;;7.37;6.70;;;;;;;;;;5056321;28;20405;-63
2022/04/01 04:31:35;;;;;;;6.70;6.10;;;;;;;;;;5038266;28;20457;-63
2022/04/01 04:34:03;;;;;;;8.07;7.27;;;;;;;;;;5038037;28;20453;-64
2022/04/01 04:36:36;;;;;;;6.37;5.80;;;;;;;;;;5038204;28;20484;-63
2022/04/01 04:39:05;;;;;;;6.77;6.17;;;;;;;;;;5038012;28;20421;-64
2022/04/01 04:41:32;;;;;;;7.23;6.53;;;;;;;;;;5037783;28;20425;-64
2022/04/01 04:43:59;;;;;;;6.90;6.20;;;;;;;;;;5055547;28;20825;-63
2022/04/01 04:46:25;;;;;;;5.90;5.30;;;;;;;;;;5056432;28;20430;-63
2022/04/01 04:48:51;;;;;;;8.13;7.33;;;;;;;;;;5038690;28;20415;-63
2022/04/01 04:51:22;;;;;;;5.40;4.90;;;;;;;;;;5055812;28;20414;-63
2022/04/01 04:53:50;;;;;;;8.07;7.37;;;;;;;;;;5037727;28;20429;-63
2022/04/01 04:56:18;;;;;;;8.00;7.30;;;;;;;;;;5056036;28;20771;-63
2022/04/01 04:58:44;;;;;;;6.53;5.93;;;;;;;;;;5055760;28;20891;-62
2022/04/01 05:01:13;;;;;;;8.40;7.40;;;;;;;;;;5037653;28;20941;-63
2022/04/01 05:03:47;;;;;;;8.83;7.37;;;;;;;;;;5055307;28;20433;-62
2022/04/01 05:06:17;;;;;;;8.00;6.77;;;;;;;;;;5055494;28;20397;-63
2022/04/01 05:08:55;;;;;;;8.03;7.23;;;;;;;;;;5055855;28;20402;-63
2022/04/01 05:11:35;;;;;;;6.87;6.17;;;;;;;;;;5037613;28;20421;-63
2022/04/01 05:14:02;;;;;;;8.13;7.33;;;;;;;;;;5037314;28;20448;-64
2022/04/01 05:16:49;;;;;;;7.37;6.67;;;;;;;;;;5054626;28;20405;-62
2022/04/01 05:19:19;;;;;;;7.80;6.97;;;;;;;;;;5055065;28;20471;-63
2022/04/01 05:22:06;;;;;;;8.80;7.90;;;;;;;;;;5037042;28;20967;-64
2022/04/01 05:24:38;;;;;;;8.57;7.77;;;;;;;;;;5037643;28;20465;-63
2022/04/01 05:27:05;;;;;;;7.90;7.10;;;;;;;;;;5054777;28;20422;-63
2022/04/01 05:29:36;;;;;;;7.83;7.03;;;;;;;;;;5055334;28;20405;-63
2022/04/01 05:32:03;;;;;;;8.37;7.30;;;;;;;;;;5054926;28;20859;-63
2022/04/01 05:34:42;;;;;;;7.87;6.97;;;;;;;;;;5054723;28;20451;-63
2022/04/01 05:37:08;;;;;;;7.87;7.10;;;;;;;;;;5054637;28;20897;-63
2022/04/01 05:39:35;;;;;;;9.23;7.93;;;;;;;;;;5055038;28;20467;-63
2022/04/01 05:42:02;;;;;;;8.90;8.00;;;;;;;;;;5054921;28;21005;-63
2022/04/01 05:44:29;;;;;;;8.17;7.37;;;;;;;;;;5054577;28;20449;-63
2022/04/01 05:46:56;;;;;;;7.93;7.23;;;;;;;;;;5036862;28;20423;-63
2022/04/01 05:49:22;;;;;;;8.07;7.27;;;;;;;;;;5054316;28;20407;-63
2022/04/01 05:51:49;;;;;;;6.73;6.03;;;;;;;;;;5036602;28;20409;-63
2022/04/01 05:54:15;;;;;;;7.50;6.80;;;;;;;;;;5054755;28;20409;-63
2022/04/01 05:56:42;;;;;;;7.67;6.90;;;;;;;;;;5055189;28;20930;-63
2022/04/01 05:59:08;;;;;;;7.70;6.90;;;;;;;;;;5036754;28;20943;-63
2022/04/01 06:01:42;;;;;;;7.70;7.00;;;;;;;;;;5054394;28;20416;-63
2022/04/01 06:04:20;;;;;;;10.03;7.10;;;;;;;;;;5036152;28;20468;-63
2022/04/01 06:06:48;;;;;;;6.83;6.07;;;;;;;;;;5054939;28;20409;-63
2022/04/01 06:09:31;;;;;;;6.60;5.73;;;;;;;;;;5037465;28;20854;-64
2022/04/01 06:12:10;;;;;;;7.13;6.00;;;;;;;;;;5039517;28;20420;-63
2022/04/01 06:14:42;;;;;;;6.43;5.53;;;;;;;;;;5056745;28;20408;-63
2022/04/01 06:17:12;;;;;;;6.23;5.63;;;;;;;;;;5039221;28;20436;-64
2022/04/01 06:19:44;;;;;;;4.90;4.40;;;;;;;;;;5042642;28;20500;-63
2022/04/01 06:22:20;;;;;;;5.07;4.57;;;;;;;;;;5054610;28;20486;-63
2022/04/01 06:24:46;;;;;;;7.27;4.93;;;;;;;;;;5054562;28;20492;-63
2022/04/01 06:27:13;;;;;;;5.37;4.37;;;;;;;;;;5054858;28;20459;-63
2022/04/01 06:29:39;;;;;;;5.77;4.90;;;;;;;;;;5054124;28;20401;-63
2022/04/01 06:32:13;;;;;;;5.27;4.30;;;;;;;;;;5054418;28;20509;-63
2022/04/01 06:34:58;;;;;;;4.87;4.40;;;;;;;;;;5054758;28;20409;-63
2022/04/01 06:37:28;;;;;;;5.57;4.67;;;;;;;;;;5054187;28;20462;-63
2022/04/01 06:39:55;;;;;;;6.60;4.70;;;;;;;;;;5054537;28;20382;-63
2022/04/01 06:42:24;;;;;;;5.07;4.67;;;;;;;;;;5054279;28;20624;-63
2022/04/01 06:44:50;;;;;;;4.73;3.97;;;;;;;;;;5054934;28;20984;-63
2022/04/01 06:47:16;;;;;;;5.23;4.47;;;;;;;;;;5054390;28;20408;-63
2022/04/01 06:49:42;;;;;;;5.17;4.20;;;;;;;;;;5054295;28;20414;-63
2022/04/01 06:52:08;;;;;;;5.20;4.30;;;;;;;;;;5053918;28;20187;-63
2022/04/01 06:54:35;;;;;;;5.00;4.27;;;;;;;;;;5054567;28;20588;-63
2022/04/01 06:57:01;;;;;;;5.30;4.40;;;;;;;;;;5054277;28;20186;-63
2022/04/01 06:59:27;;;;;;;5.60;4.23;;;;;;;;;;5054120;28;20408;-62
2022/04/01 07:01:53;;;;;;;6.00;4.40;;;;;;;;;;5053781;28;20178;-62
2022/04/01 07:04:19;;;;;;;8.17;4.33;;;;;;;;;;5054223;28;20674;-63
2022/04/01 07:06:47;;;;;;;5.83;4.40;;;;;;;;;;5036075;28;20413;-62
2022/04/01 07:09:13;;;;;;;4.83;4.07;;;;;;;;;;5053915;28;20408;-63
2022/04/01 07:11:39;;;;;;;5.03;4.17;;;;;;;;;;5053742;28;20410;-62
2022/04/01 07:14:05;;;;;;;5.53;3.77;;;;;;;;;;5036188;28;20218;-63
2022/04/01 07:16:31;;;;;;;4.83;4.23;;;;;;;;;;5036790;28;20409;-63
2022/04/01 07:18:57;;;;;;;4.40;4.00;;;;;;;;;;5037091;28;20182;-64
2022/04/01 07:21:23;;;;;;;8.83;5.10;;;;;;;;;;5035608;28;20448;-62
2022/04/01 07:23:49;;;;;;;5.40;4.40;;;;;;;;;;5053600;28;20433;-62
2022/04/01 07:26:15;;;;;;;4.47;4.07;;;;;;;;;;5053465;28;20409;-63
2022/04/01 07:28:41;;;;;;;5.93;4.20;;;;;;;;;;5035236;28;20411;-63
2022/04/01 07:33:51;;;;;;;5.23;4.07;;;;;;;;;;5053623;28;20248;-63
2022/04/01 07:36:20;;;;;;;4.23;3.83;;;;;;;;;;5035461;28;20516;-63
2022/04/01 07:38:46;;;;;;;4.93;4.23;;;;;;;;;;5054165;28;20405;-63
2022/04/01 07:41:11;;;;;;;4.20;3.60;;;;;;;;;;5038983;28;20405;-63
2022/04/01 07:43:37;;;;;;;5.13;4.50;;;;;;;;;;5038975;28;20988;-63
2022/04/01 07:46:04;;;;;;;5.27;4.63;;;;;;;;;;5057262;28;20202;-63
2022/04/01 07:48:30;;;;;;;6.00;5.37;;;;;;;;;;5057127;28;20270;-64
2022/04/01 07:50:56;;;;;;;5.43;4.90;;;;;;;;;;5056777;28;20494;-63
2022/04/01 07:53:22;;;;;;;7.13;4.80;;;;;;;;;;5056458;28;20444;-63
2022/04/01 07:55:49;;;;;;;6.33;4.63;;;;;;;;;;5056578;28;20737;-63
2022/04/01 07:58:15;;;;;;;6.27;4.10;;;;;;;;;;5038824;28;20420;-63
2022/04/01 08:00:41;;;;;;;5.70;4.50;;;;;;;;;;5056268;28;20410;-63
2022/04/01 08:03:08;;;;;;;4.47;3.33;;;;;;;;;;5056407;28;20794;-63
2022/04/01 08:05:34;;;;;;;5.13;4.27;;;;;;;;;;5056540;28;20837;-64
2022/04/01 08:08:00;;;;;;;4.07;3.57;;;;;;;;;;5056916;28;20397;-63
2022/04/01 08:10:26;;;;;;;4.53;4.13;;;;;;;;;;5056745;28;20233;-63
2022/04/01 08:12:52;;;;;;;4.00;3.60;;;;;;;;;;5057271;28;20198;-63
2022/04/01 08:15:18;;;;;;;4.37;3.77;;;;;;;;;;5061666;28;20405;-62
2022/04/01 08:17:44;;;;;;;5.47;4.37;;;;;;;;;;5047239;28;20915;-63
2022/04/01 08:20:12;;;;;;;4.63;4.17;;;;;;;;;;5064230;28;20416;-63
2022/04/01 08:22:38;;;;;;;5.67;4.27;;;;;;;;;;5043090;28;20369;-63
2022/04/01 08:25:05;;;;;;;4.83;4.33;;;;;;;;;;5038750;28;20878;-63
2022/04/01 08:27:31;;;;;;;5.87;4.10;;;;;;;;;;5038634;28;20413;-63
2022/04/01 08:29:59;;;;;;;10.47;4.57;;;;;;;;;;5055896;28;20484;-63
2022/04/01 08:32:26;;;;;;;7.10;4.70;;;;;;;;;;5037900;28;20205;-63
2022/04/01 08:34:52;;;;;;;4.50;4.10;;;;;;;;;;5055812;28;20427;-63
2022/04/01 08:37:18;;;;;;;4.23;3.83;;;;;;;;;;5056160;28;20413;-63
2022/04/01 08:39:45;;;;;;;4.37;3.73;;;;;;;;;;5037930;28;20542;-63
2022/04/01 08:42:12;;;;;;;4.47;3.80;;;;;;;;;;5037499;28;20459;-63
2022/04/01 08:44:41;;;;;;;4.20;3.80;;;;;;;;;;5056067;28;20464;-63
2022/04/01 08:47:08;;;;;;;4.63;4.00;;;;;;;;;;5055870;28;20428;-63
2022/04/01 08:49:34;;;;;;;7.37;3.50;;;;;;;;;;5055687;28;20886;-63
2022/04/01 08:52:00;;;;;;;4.53;3.03;;;;;;;;;;5054902;28;20478;-63
2022/04/01 08:54:26;;;;;;;5.83;3.53;;;;;;;;;;5060049;28;20445;-63
2022/04/01 08:56:53;;;;;;;4.27;3.87;;;;;;;;;;5060916;28;20424;-63
2022/04/01 08:59:18;;;;;;;8.23;4.23;;;;;;;;;;5042708;28;20421;-63
2022/04/01 09:01:45;;;;;;;6.13;4.00;;;;;;;;;;5041930;28;20432;-63
2022/04/01 09:04:17;;;;;;;4.60;4.20;;;;;;;;;;5060186;28;20271;-63
2022/04/01 09:06:43;;;;;;;4.70;4.20;;;;;;;;;;5061107;28;20761;-63
2022/04/01 09:09:22;;;;;;;5.77;4.53;;;;;;;;;;5057270;28;20412;-63
2022/04/01 09:12:03;;;;;;;9.90;5.03;;;;;;;;;;5037638;28;20553;-62
2022/04/01 09:14:29;;;;;;;5.60;4.73;;;;;;;;;;5055624;28;20472;-63
2022/04/01 09:16:56;;;;;;;4.70;4.30;;;;;;;;;;5055426;28;20474;-63
2022/04/01 09:19:29;;;;;;;6.60;4.17;;;;;;;;;;5037142;28;20235;-62
2022/04/01 09:21:55;;;;;;;5.30;4.33;;;;;;;;;;5055118;28;20389;-62
2022/04/01 09:24:21;;;;;;;5.50;3.90;;;;;;;;;;5037314;28;20461;-62
2022/04/01 09:26:53;;;;;;;5.53;3.93;;;;;;;;;;5038466;28;20175;-62
2022/04/01 09:29:19;;;;;;;7.40;4.57;;;;;;;;;;5055131;28;20498;-62
2022/04/01 09:31:50;;;;;;;7.10;4.07;;;;;;;;;;5054740;28;20458;-62
2022/04/01 09:34:16;;;;;;;4.37;3.77;;;;;;;;;;5036762;28;20488;-62
2022/04/01 09:36:43;;;;;;;5.27;4.77;;;;;;;;;;5036941;28;20441;-62
2022/04/01 09:39:10;;;;;;;5.43;4.43;;;;;;;;;;5054933;28;20228;-62
2022/04/01 09:41:38;;;;;;;4.60;4.10;;;;;;;;;;5054468;28;20449;-62
2022/04/01 09:44:09;;;;;;;4.60;4.10;;;;;;;;;;5054500;28;20453;-63
2022/04/01 09:46:35;;;;;;;4.43;3.43;;;;;;;;;;5054834;28;20409;-62
2022/04/01 09:49:01;;;;;;;5.97;4.23;;;;;;;;;;5054323;28;20405;-63
2022/04/01 09:51:33;;;;;;;4.43;3.90;;;;;;;;;;5079482;22;20968;-66
2022/04/01 09:54:02;;;;;;;3.93;3.60;;;;;;;;;;5036076;28;20226;-66
2022/04/01 09:56:40;;;;;;;3.87;3.20;;;;;;;;;;5053997;28;20413;-66
2022/04/01 09:59:07;;;;;;;6.43;3.90;;;;;;;;;;5035861;28;20453;-66
2022/04/01 10:01:34;;;;;;;4.37;3.97;;;;;;;;;;5053415;28;20420;-66
2022/04/01 10:04:00;;;;;;;6.30;4.37;;;;;;;;;;5053773;28;20397;-66
2022/04/01 10:06:27;;;;;;;4.83;4.07;;;;;;;;;;5035629;28;20417;-66
2022/04/01 10:08:53;;;;;;;5.57;3.93;;;;;;;;;;5053549;28;20424;-63
2022/04/01 10:11:25;;;;;;;4.07;3.67;;;;;;;;;;5053390;28;20846;-65
2022/04/01 10:13:51;;;;;;;4.13;3.73;;;;;;;;;;5035584;28;20909;-65
2022/04/01 10:16:18;;;;;;;4.03;3.40;;;;;;;;;;5053326;28;20413;-64
2022/04/01 10:18:47;;;;;;;5.40;4.20;;;;;;;;;;5053313;28;20463;-65
2022/04/01 10:21:14;;;;;;;4.67;3.60;;;;;;;;;;5053268;28;20443;-65
2022/04/01 10:23:44;;;;;;;7.40;3.83;;;;;;;;;;5035369;28;20904;-65
2022/04/01 10:26:13;;;;;;;5.27;3.80;;;;;;;;;;5053234;28;20987;-63
2022/04/01 10:28:39;;;;;;;6.43;3.80;;;;;;;;;;5037225;28;20429;-65
2022/04/01 10:31:12;;;;;;;4.67;3.40;;;;;;;;;;5053112;28;20421;-65
2022/04/01 10:33:38;;;;;;;4.00;3.60;;;;;;;;;;5053448;28;20480;-65
2022/04/01 10:36:16;;;;;;;8.00;4.67;;;;;;;;;;5053111;28;20436;-64
2022/04/01 10:38:42;;;;;;;4.20;3.80;;;;;;;;;;5053244;28;20512;-65
2022/04/01 10:41:12;;;;;;;5.03;3.90;;;;;;;;;;5053613;28;20952;-65
2022/04/01 10:43:42;;;;;;;5.30;4.80;;;;;;;;;;5054097;28;20533;-65
2022/04/01 10:46:10;;;;;;;4.33;3.13;;;;;;;;;;5053007;28;20971;-65
2022/04/01 10:51:37;;;;;;;7.87;4.17;;;;;;;;;;5053327;28;20448;-65
2022/04/01 10:54:12;;;;;;;6.90;4.70;;;;;;;;;;5053567;28;20454;-65
2022/04/01 10:57:00;;;;;;;6.70;4.40;;;;;;;;;;5053112;28;20884;-65
2022/04/01 10:59:27;;;;;;;5.13;3.97;;;;;;;;;;5035041;28;20405;-65
2022/04/01 11:01:52;;;;;;;5.60;4.70;;;;;;;;;;5035149;28;20441;-65
2022/04/01 11:04:18;;;;;;;4.67;4.10;;;;;;;;;;5053495;28;20814;-66
2022/04/01 11:06:55;;;;;;;4.53;3.90;;;;;;;;;;5035046;28;20179;-64
2022/04/01 11:09:34;;;;;;;8.40;4.40;;;;;;;;;;5035269;28;20223;-66
2022/04/01 11:12:25;;;;;;;5.17;4.33;;;;;;;;;;5035065;28;20490;-66
2022/04/01 11:14:56;;;;;;;7.47;4.37;;;;;;;;;;5055690;28;20885;-65
2022/04/01 11:17:26;;;;;;;6.17;4.77;;;;;;;;;;5056872;28;20428;-64
2022/04/01 11:20:04;;;;;;;4.47;4.07;;;;;;;;;;5057080;28;20458;-67
2022/04/01 11:22:33;;;;;;;4.33;3.47;;;;;;;;;;5038942;28;20444;-66
2022/04/01 11:24:59;;;;;;;5.07;3.90;;;;;;;;;;5056679;28;20452;-64
2022/04/01 11:27:26;;;;;;;6.60;4.37;;;;;;;;;;5056568;28;20965;-64
2022/04/01 11:30:14;;;;;;;4.73;4.00;;;;;;;;;;5056638;28;20171;-65
2022/04/01 11:32:41;;;;;;;4.17;3.73;;;;;;;;;;5038525;28;20523;-64
2022/04/01 11:35:08;;;;;;;6.03;3.90;;;;;;;;;;5056437;28;20474;-66
2022/04/01 11:37:37;;;;;;;5.53;3.87;;;;;;;;;;5056462;28;20571;-64
2022/04/01 11:40:10;;;;;;;5.37;4.57;;;;;;;;;;5056362;28;20413;-64
2022/04/01 11:42:57;;;;;;;4.63;3.90;;;;;;;;;;5056313;28;20523;-64
2022/04/01 11:45:23;;;;;;;6.17;4.27;;;;;;;;;;5025171;28;20460;-65
2022/04/01 11:47:49;;;;;;;5.00;4.20;;;;;;;;;;5038381;28;20916;-65
2022/04/01 11:50:17;;;;;;;5.33;4.43;;;;;;;;;;5038247;28;20512;-64
2022/04/01 11:52:44;;;;;;;5.53;4.03;;;;;;;;;;5038122;28;20214;-66
2022/04/01 11:55:11;;;;;;;6.30;4.30;;;;;;;;;;5056371;28;20413;-64
2022/04/01 11:57:37;;;;;;;6.00;4.70;;;;;;;;;;5038100;28;20794;-66
2022/04/01 12:00:09;;;;;;;4.83;4.33;;;;;;;;;;5055915;28;20417;-64
2022/04/01 12:02:36;;;;;;;6.27;5.00;;;;;;;;;;5056020;28;20512;-65
2022/04/01 12:05:02;;;;;;;6.53;4.43;;;;;;;;;;5056466;28;20452;-65
2022/04/01 12:10:23;;;;;;;5.77;4.93;;;;;;;;;;5056490;28;20181;-65
2022/04/01 12:12:55;;;;;;;5.17;4.67;;;;;;;;;;5055684;28;20437;-65
2022/04/01 12:15:41;;;;;;;5.20;4.47;;;;;;;;;;5055799;28;20494;-65
2022/04/01 12:18:08;;;;;;;6.40;5.00;;;;;;;;;;5055710;28;20392;-65
2022/04/01 12:20:41;;;;;;;7.03;4.53;;;;;;;;;;5055650;28;20459;-65
2022/04/01 12:23:07;;;;;;;5.00;4.40;;;;;;;;;;5055564;28;20466;-65
2022/04/01 12:25:34;;;;;;;5.80;5.20;;;;;;;;;;5037660;28;20448;-65
2022/04/01 12:28:02;;;;;;;5.23;4.73;;;;;;;;;;5037763;28;20512;-65
2022/04/01 12:30:29;;;;;;;6.83;4.90;;;;;;;;;;5037653;28;20781;-65
2022/04/01 12:32:56;;;;;;;5.80;4.80;;;;;;;;;;5055356;28;20859;-67
2022/04/01 12:35:22;;;;;;;6.67;4.60;;;;;;;;;;5037286;28;20413;-64
2022/04/01 12:38:02;;;;;;;5.00;4.20;;;;;;;;;;5055215;28;20417;-65
2022/04/01 12:40:28;;;;;;;5.63;4.70;;;;;;;;;;5055415;28;20404;-65
2022/04/01 12:42:54;;;;;;;4.77;4.37;;;;;;;;;;5055099;28;20783;-64
2022/04/01 12:45:20;;;;;;;6.20;5.00;;;;;;;;;;5055079;28;20651;-64
2022/04/01 12:47:46;;;;;;;7.57;5.37;;;;;;;;;;5055416;28;20871;-64
2022/04/01 12:50:30;;;;;;;5.70;4.70;;;;;;;;;;5055150;28;20494;-65
2022/04/01 12:53:08;;;;;;;6.57;4.63;;;;;;;;;;5054782;28;20701;-65
2022/04/01 12:55:33;;;;;;;5.97;4.97;;;;;;;;;;5055245;28;20393;-65
2022/04/01 12:57:59;;;;;;;7.50;5.03;;;;;;;;;;5036937;28;20431;-65
2022/04/01 13:00:26;;;;;;;5.37;4.87;;;;;;;;;;5036973;28;20182;-65
2022/04/01 13:02:52;;;;;;;6.70;4.93;;;;;;;;;;5054667;28;20281;-65
2022/04/01 13:05:19;;;;;;;8.37;5.37;;;;;;;;;;5054461;28;20481;-65
2022/04/01 13:07:46;;;;;;;5.13;4.17;;;;;;;;;;5054639;28;20917;-65
2022/04/01 13:10:13;;;;;;;6.60;5.13;;;;;;;;;;5054768;28;20910;-65
2022/04/01 13:12:41;;;;;;;6.50;4.93;;;;;;;;;;5054531;28;20520;-65
2022/04/01 13:15:09;;;;;;;9.77;5.10;;;;;;;;;;5054707;28;20413;-65
2022/04/01 13:17:46;;;;;;;6.63;4.77;;;;;;;;;;5054511;28;20417;-65
2022/04/01 13:20:13;;;;;;;6.40;3.97;;;;;;;;;;5036673;28;20401;-67
2022/04/01 13:22:40;;;;;;;8.20;5.30;;;;;;;;;;5054323;28;20436;-65
2022/04/01 13:25:07;;;;;;;5.70;4.43;;;;;;;;;;5054545;28;20453;-64
2022/04/01 13:27:33;;;;;;;7.00;5.07;;;;;;;;;;5036623;28;20466;-65
2022/04/01 13:29:59;;;;;;;6.43;4.90;;;;;;;;;;5054195;28;20417;-64
2022/04/01 13:32:25;;;;;;;5.63;4.80;;;;;;;;;;5054154;28;20237;-64
2022/04/01 13:34:52;;;;;;;9.77;5.20;;;;;;;;;;5054437;28;20179;-63
2022/04/01 13:37:18;;;;;;;5.07;4.57;;;;;;;;;;5053651;28;20178;-66
2022/04/01 13:39:47;;;;;;;4.77;3.93;;;;;;;;;;5036317;28;20522;-65
2022/04/01 13:42:13;;;;;;;5.27;4.20;;;;;;;;;;5036120;28;20959;-65
2022/04/01 13:44:40;;;;;;;5.70;3.93;;;;;;;;;;5054277;28;20463;-64
2022/04/01 13:47:06;;;;;;;5.77;3.77;;;;;;;;;;5053858;28;20814;-65
2022/04/01 13:49:33;;;;;;;5.37;4.27;;;;;;;;;;5054365;28;20409;-65
2022/04/01 13:52:00;;;;;;;5.33;4.20;;;;;;;;;;5054079;28;20441;-65
2022/04/01 13:54:28;;;;;;;10.03;4.90;;;;;;;;;;5054550;28;20444;-63
2022/04/01 13:56:54;;;;;;;8.90;4.57;;;;;;;;;;5054941;28;20413;-65
2022/04/01 13:59:20;;;;;;;5.70;4.77;;;;;;;;;;5036515;28;20428;-65
2022/04/01 14:01:46;;;;;;;10.77;5.50;;;;;;;;;;5036661;28;20481;-65
2022/04/01 14:04:12;;;;;;;8.87;5.17;;;;;;;;;;5054127;28;20424;-66
2022/04/01 14:06:38;;;;;;;4.93;4.43;;;;;;;;;;5054270;28;20186;-64
2022/04/01 14:09:05;;;;;;;5.13;4.57;;;;;;;;;;5054216;28;20174;-64
2022/04/01 14:11:31;;;;;;;7.40;4.57;;;;;;;;;;5036223;28;20623;-65
2022/04/01 14:13:57;;;;;;;8.67;5.60;;;;;;;;;;5053798;28;20901;-66
2022/04/01 14:16:23;;;;;;;5.70;5.07;;;;;;;;;;5054044;28;20420;-66
2022/04/01 14:18:50;;;;;;;7.60;5.60;;;;;;;;;;5053823;28;20313;-65
2022/04/01 14:21:16;;;;;;;8.30;6.20;;;;;;;;;;5054451;28;20272;-64
2022/04/01 14:23:42;;;;;;;7.37;6.40;;;;;;;;;;5053856;28;20401;-63
2022/04/01 14:26:08;;;;;;;12.03;6.83;;;;;;;;;;5053822;28;20578;-66
2022/04/01 14:28:38;;;;;;;10.73;7.30;;;;;;;;;;5054234;28;20180;-64
2022/04/01 14:31:05;;;;;;;12.43;9.70;;;;;;;;;;5035989;28;20524;-65
2022/04/01 14:33:31;;;;;;;17.70;12.43;;;;;;;;;;5054410;28;20462;-63
2022/04/01 14:35:57;;;;;;;19.00;12.77;;;;;;;;;;5054195;28;20420;-63
2022/04/01 14:38:23;;;;;;;19.87;14.53;;;;;;;;;;5036080;28;20421;-63
2022/04/01 14:40:53;;;;;;;28.97;15.30;;;;;;;;;;5036036;28;20421;-64
2022/04/01 14:43:19;;;;;;;22.23;14.60;;;;;;;;;;5053426;28;20500;-65
2022/04/01 14:45:46;;;;;;;18.97;13.70;;;;;;;;;;5053406;28;20467;-64
2022/04/01 14:48:12;;;;;;;18.43;13.90;;;;;;;;;;5035307;28;20436;-64
2022/04/01 14:50:38;;;;;;;21.70;16.47;;;;;;;;;;5039377;28;20416;-65
2022/04/01 14:53:04;;;;;;;23.57;15.70;;;;;;;;;;5057057;28;20547;-64
2022/04/01 14:55:31;;;;;;;15.63;13.60;;;;;;;;;;5057296;28;20408;-62
2022/04/01 14:57:57;;;;;;;25.20;20.23;;;;;;;;;;5057634;28;20417;-62
2022/04/01 15:00:23;;;;;;;31.30;24.87;;;;;;;;;;5057035;28;20458;-62
2022/04/01 15:02:49;;;;;;;29.03;21.77;;;;;;;;;;5056944;28;20240;-60